createdAt,value
2022-08-26T00:00:01.729Z,0.044
2022-08-26T00:05:01.602Z,1.219
2022-08-26T00:10:01.762Z,1.459
2022-08-26T00:15:01.572Z,1.443
2022-08-26T00:20:01.768Z,1.317
2022-08-26T00:25:01.545Z,1.473
2022-08-26T00:30:01.616Z,1.2710000000000001
2022-08-26T00:35:01.759Z,1.459
2022-08-26T00:40:01.673Z,1.309
2022-08-26T00:45:01.695Z,1.4040000000000001
2022-08-26T00:50:01.682Z,1.4000000000000001
2022-08-26T00:55:01.604Z,1.21
2022-08-26T01:00:01.794Z,0.844
2022-08-26T01:05:01.636Z,0.135
2022-08-26T01:10:01.733Z,0.025
2022-08-26T01:15:01.630Z,0
2022-08-26T01:20:01.608Z,0
2022-08-26T01:25:03.493Z,0.008
2022-08-26T01:30:01.631Z,0.406
2022-08-26T01:35:01.787Z,0.325
2022-08-26T01:40:01.703Z,0.117
2022-08-26T01:45:01.672Z,0.04
2022-08-26T01:50:01.631Z,0.155
2022-08-26T01:55:01.682Z,0.11800000000000001
2022-08-26T02:00:01.825Z,0.096
2022-08-26T02:05:01.652Z,0.131
2022-08-26T02:10:01.749Z,0.036000000000000004
2022-08-26T02:15:01.708Z,0.133
2022-08-26T02:20:01.697Z,0.066
2022-08-26T02:25:02.334Z,0.10400000000000001
2022-08-26T02:30:01.821Z,0.153
2022-08-26T02:35:01.780Z,0.068
2022-08-26T02:40:01.763Z,0.162
2022-08-26T02:45:01.832Z,0.047
2022-08-26T02:50:01.642Z,0.115
2022-08-26T02:55:01.695Z,0.08600000000000001
2022-08-26T03:00:01.843Z,0.067
2022-08-26T03:05:02.131Z,0.12
2022-08-26T03:10:01.743Z,0.047
2022-08-26T03:15:01.708Z,0.171
2022-08-26T03:20:01.873Z,0.095
2022-08-26T03:25:01.899Z,0
2022-08-26T03:30:01.770Z,0
2022-08-26T03:35:01.767Z,0.041
2022-08-26T03:40:01.741Z,0.132
2022-08-26T03:45:01.786Z,0.064
2022-08-26T03:50:01.956Z,0.125
2022-08-26T03:55:01.761Z,0.181
2022-08-26T04:00:01.911Z,0.059000000000000004
2022-08-26T04:05:01.745Z,0.166
2022-08-26T04:10:01.740Z,0.069
2022-08-26T04:15:01.770Z,0.10400000000000001
2022-08-26T04:20:01.787Z,0.11800000000000001
2022-08-26T04:25:01.849Z,23.361
2022-08-26T04:30:01.813Z,32.625
2022-08-26T04:35:01.936Z,35.236000000000004
2022-08-26T04:40:02.103Z,52.979
2022-08-26T04:45:01.880Z,84.117
2022-08-26T04:50:02.105Z,119.26
2022-08-26T04:55:01.787Z,125.306
2022-08-26T05:00:01.781Z,186.948
2022-08-26T05:05:01.808Z,210.02100000000002
2022-08-26T05:10:01.851Z,236.387
2022-08-26T05:15:01.948Z,322.096
2022-08-26T05:20:01.809Z,375.139
2022-08-26T05:25:01.907Z,374.675
2022-08-26T05:30:01.892Z,378.663
2022-08-26T05:35:01.838Z,429.083
2022-08-26T05:40:02.164Z,533.164
2022-08-26T05:45:01.883Z,579.042
2022-08-26T05:50:01.999Z,667.509
2022-08-26T05:55:01.892Z,698.456
2022-08-26T06:00:01.858Z,766.047
2022-08-26T06:05:01.847Z,880.658
2022-08-26T06:10:28.498Z,919.1030000000001
2022-08-26T06:15:02.021Z,977.1270000000001
2022-08-26T06:20:01.869Z,911.433
2022-08-26T06:25:01.906Z,973.136
2022-08-26T06:30:01.908Z,1015.5020000000001
2022-08-26T06:35:01.899Z,1369.3410000000001
2022-08-26T06:40:02.057Z,1864.287
2022-08-26T06:45:01.883Z,1839.636
2022-08-26T06:50:02.016Z,1959.825
2022-08-26T06:55:01.896Z,2162.355
2022-08-26T07:00:01.897Z,2277.841
2022-08-26T07:05:01.897Z,2502.069
2022-08-26T07:10:01.946Z,2696.217
2022-08-26T07:15:02.134Z,2895.791
2022-08-26T07:20:02.015Z,3144.158
2022-08-26T07:25:01.931Z,3510.666
2022-08-26T07:30:02.086Z,2634.491
2022-08-26T07:35:01.961Z,2666.379
2022-08-26T07:40:02.196Z,3713.422
2022-08-26T07:45:01.976Z,3550.468
2022-08-26T07:50:02.140Z,1985.041
2022-08-26T07:55:01.952Z,4238.35
2022-08-26T08:00:01.975Z,4453.88
2022-08-26T08:05:02.059Z,2265.299
2022-08-26T08:10:03.770Z,3318.3250000000003
2022-08-26T08:15:02.165Z,4919.118
2022-08-26T08:20:02.003Z,5144.635
2022-08-26T08:25:02.965Z,4526.811
2022-08-26T08:30:01.981Z,5230.601
2022-08-26T08:35:01.967Z,4188.183
2022-08-26T08:40:02.131Z,4681.264
2022-08-26T08:45:02.016Z,2621.052
2022-08-26T08:50:02.200Z,5372.377
2022-08-26T08:55:02.026Z,4984.157
2022-08-26T09:00:02.082Z,5697.342000000001
2022-08-26T09:05:02.024Z,6008.876
2022-08-26T09:10:02.031Z,6143.601000000001
2022-08-26T09:15:02.209Z,6172.368
2022-08-26T09:20:02.144Z,5112.296
2022-08-26T09:25:02.221Z,6213.423
2022-08-26T09:30:02.023Z,6265.255
2022-08-26T09:35:02.031Z,6365.342000000001
2022-08-26T09:40:02.140Z,6314.013
2022-08-26T09:45:02.094Z,6303.996
2022-08-26T09:50:02.043Z,6374.459
2022-08-26T09:55:02.168Z,5823.7210000000005
2022-08-26T10:00:02.269Z,5269.243
2022-08-26T10:05:04.437Z,4902.113
2022-08-26T10:10:02.206Z,5880.513
2022-08-26T10:15:02.079Z,5345.337
2022-08-26T10:20:02.084Z,4799.794
2022-08-26T10:25:02.706Z,6974.805
2022-08-26T10:30:02.112Z,6910.071
2022-08-26T10:35:02.346Z,6832.282
2022-08-26T10:40:02.359Z,6803.999
2022-08-26T10:45:02.287Z,7013.861
2022-08-26T10:50:03.097Z,6055.997
2022-08-26T10:55:03.087Z,6098.236
2022-08-26T11:00:02.144Z,7153.198
2022-08-26T11:05:02.106Z,7073.078
2022-08-26T11:10:02.104Z,7009.978
2022-08-26T11:15:02.192Z,6920.8460000000005
2022-08-26T11:20:03.937Z,7021.643
2022-08-26T11:25:02.141Z,6996.719
2022-08-26T11:30:02.126Z,7013.4580000000005
2022-08-26T11:35:02.144Z,7070.26
2022-08-26T11:40:02.805Z,7087.535
2022-08-26T11:45:05.315Z,7054.8730000000005
2022-08-26T11:50:02.287Z,7220.286
2022-08-26T11:55:02.144Z,7235.07
2022-08-26T12:00:02.357Z,6211.56
2022-08-26T12:05:02.204Z,1717.972
2022-08-26T12:10:02.601Z,6266.951
2022-08-26T12:15:02.200Z,7500.517
2022-08-26T12:20:02.171Z,7251.567
2022-08-26T12:25:02.190Z,6444.301
2022-08-26T12:30:02.214Z,7421.298
2022-08-26T12:40:02.312Z,7208.168000000001
2022-08-26T12:45:02.207Z,5660.453
2022-08-26T12:50:02.295Z,4269.371
2022-08-26T12:55:02.214Z,2035.14
2022-08-26T13:00:02.324Z,2276.563
2022-08-26T13:05:02.527Z,2276.7870000000003
2022-08-26T13:10:02.240Z,2791.4
2022-08-26T13:15:02.448Z,2735.773
2022-08-26T13:20:03.983Z,1421.262
2022-08-26T13:25:02.417Z,1990.391
2022-08-26T13:30:02.245Z,5861.87
2022-08-26T13:35:03.926Z,5558.4580000000005
2022-08-26T13:40:02.332Z,3823.212
2022-08-26T13:45:02.434Z,6044.5560000000005
2022-08-26T13:50:02.244Z,6168.029
2022-08-26T13:55:02.401Z,5837.688
2022-08-26T14:00:02.319Z,3752.98
2022-08-26T14:05:02.270Z,3142.917
2022-08-26T14:10:02.291Z,5498.462
2022-08-26T14:15:02.307Z,5110.966
2022-08-26T14:20:02.301Z,2643.554
2022-08-26T14:25:02.370Z,1378.826
2022-08-26T14:30:02.316Z,1293.808
2022-08-26T14:35:02.337Z,1223.5430000000001
2022-08-26T14:40:02.544Z,3882.281
2022-08-26T14:45:02.372Z,4685.495
2022-08-26T14:50:02.477Z,4964.789
2022-08-26T14:55:02.319Z,3566.877
2022-08-26T15:00:02.476Z,876.099
2022-08-26T15:05:02.358Z,770.509
2022-08-26T15:10:02.465Z,657.291
2022-08-26T15:15:02.349Z,585.0840000000001
2022-08-26T15:20:02.320Z,708.193
2022-08-26T15:25:02.397Z,1301.307
2022-08-26T15:30:02.469Z,1637.421
2022-08-26T15:35:05.605Z,1573.404
2022-08-26T15:40:02.449Z,1438.042
2022-08-26T15:45:02.572Z,1350.513
2022-08-26T15:50:02.497Z,1220.727
2022-08-26T16:00:02.522Z,1061.096
2022-08-26T16:05:02.378Z,991.585
2022-08-26T16:10:02.434Z,929.389
2022-08-26T16:15:02.421Z,866.073
2022-08-26T16:20:02.373Z,794.412
2022-08-26T16:25:02.401Z,734.465
2022-08-26T16:30:02.557Z,671.4780000000001
2022-08-26T16:35:02.475Z,602.711
2022-08-26T16:40:02.607Z,534.278
2022-08-26T16:45:02.421Z,499.479
2022-08-26T16:50:02.430Z,491.985
2022-08-26T16:55:02.453Z,487.056
2022-08-26T17:00:02.610Z,471.416
2022-08-26T17:05:02.814Z,445.558
2022-08-26T17:10:02.604Z,419.026
2022-08-26T17:15:02.674Z,401.171
2022-08-26T17:20:02.485Z,367.56100000000004
2022-08-26T17:25:03.713Z,325.51800000000003
2022-08-26T17:30:02.501Z,288.101
2022-08-26T17:35:02.474Z,253.52
2022-08-26T17:40:02.499Z,205.92600000000002
2022-08-26T17:45:02.486Z,151.02
2022-08-26T17:50:02.645Z,93.569
2022-08-26T17:55:02.462Z,39.84
2022-08-26T18:00:07.588Z,11.123000000000001
2022-08-26T18:05:02.570Z,0.017
2022-08-26T18:10:02.496Z,0.015
2022-08-26T18:15:02.505Z,0.114
2022-08-26T18:20:02.522Z,0.122
2022-08-26T18:25:02.663Z,0.093
2022-08-26T18:30:02.539Z,0.068
2022-08-26T18:35:02.660Z,0.066
2022-08-26T18:40:02.652Z,0.066
2022-08-26T18:45:02.533Z,0.054
2022-08-26T18:50:02.582Z,0.092
2022-08-26T18:55:02.510Z,0.015
2022-08-26T19:00:02.734Z,0.045
2022-08-26T19:05:02.508Z,0.126
2022-08-26T19:10:02.738Z,0.096
2022-08-26T19:15:02.535Z,0.083
2022-08-26T19:20:02.561Z,0.077
2022-08-26T19:25:02.699Z,0.069
2022-08-26T19:30:02.558Z,0.064
2022-08-26T19:35:02.509Z,0.08700000000000001
2022-08-26T19:40:02.624Z,0.09
2022-08-26T19:45:02.757Z,0.127
2022-08-26T19:50:02.658Z,0.117
2022-08-26T19:55:02.669Z,0.074
2022-08-26T20:00:02.616Z,0.073
2022-08-26T20:05:02.554Z,0.082
2022-08-26T20:10:02.537Z,0.129
2022-08-26T20:15:02.614Z,0.122
2022-08-26T20:20:02.781Z,0.16
2022-08-26T20:25:02.617Z,0.165
2022-08-26T20:30:02.775Z,0.18
2022-08-26T20:35:02.575Z,0.111
2022-08-26T20:40:02.814Z,0.132
2022-08-26T20:45:02.621Z,0.132
2022-08-26T20:50:02.629Z,0.132
2022-08-26T20:55:02.962Z,0.133
2022-08-26T21:00:02.662Z,0.14
2022-08-26T21:05:02.826Z,0.17300000000000001
2022-08-26T21:10:02.641Z,0.169
2022-08-26T21:15:02.788Z,0.17
2022-08-26T21:20:02.707Z,0.127
2022-08-26T21:25:02.684Z,0.123
2022-08-26T21:30:02.823Z,0.094
2022-08-26T21:35:02.758Z,0.111
2022-08-26T21:40:02.870Z,0.11900000000000001
2022-08-26T21:45:01.444Z,0.152
2022-08-26T21:50:01.603Z,0.169
2022-08-26T21:55:01.505Z,0.167
2022-08-26T22:00:01.564Z,0.155
2022-08-26T22:05:01.506Z,0.123
2022-08-26T22:10:01.513Z,0.125
2022-08-26T22:15:01.687Z,0.126
2022-08-26T22:20:01.550Z,0.127
2022-08-26T22:25:01.620Z,0.14
2022-08-26T22:30:01.555Z,0.135
2022-08-26T22:35:01.495Z,0.19
2022-08-26T22:40:01.878Z,0.185
2022-08-26T22:45:01.526Z,0.155
2022-08-26T22:50:01.732Z,0.137
2022-08-26T22:55:01.517Z,0.128
2022-08-26T23:00:01.763Z,0.124
2022-08-26T23:05:01.582Z,0.125
2022-08-26T23:10:01.512Z,0.148
2022-08-26T23:15:01.541Z,0.17400000000000002
2022-08-26T23:20:01.665Z,0.176
2022-08-26T23:25:01.726Z,0.133
2022-08-26T23:30:01.549Z,0.137
2022-08-26T23:35:01.553Z,0.136
2022-08-26T23:40:01.714Z,0.136
2022-08-26T23:45:01.604Z,0.137
2022-08-26T23:50:01.797Z,0.138
2022-08-26T23:55:01.571Z,0.17300000000000001
